Terminal Aerodrome Forecast
Issued by NWS Wilmington, OH

Current Version | Previous Version | Text Only | Print | Product List | Glossary Off
Versions: 1 2 3 4 5 6 7 8 9 10 11 12 13 14 15 16 17 18 19

000
FTUS41 KILN 301800 AAA
TAFCMH
TAF AMD
KCMH 301838Z 3019/0118 34007KT 5SM HZ BKN006 OVC012
     FM010200 35005KT 5SM BR OVC009
      TEMPO 0108/0112 1SM BR OVC003
     FM011500 06003KT P6SM BKN012=

USA.gov is the U.S. government's official web portal to all federal, state and local government web resources and services.